sensor_id;sensor_type;location;lat;lon;timestamp;P1;durP1;ratioP1;P2;durP2;ratioP2
33138;SDS011;19501;50.948;5.316;2023-08-08T00:01:06;14.18;;;5.60;;
33138;SDS011;19501;50.948;5.316;2023-08-08T00:03:32;11.43;;;4.60;;
33138;SDS011;19501;50.948;5.316;2023-08-08T00:05:59;16.45;;;5.18;;
33138;SDS011;19501;50.948;5.316;2023-08-08T00:08:25;13.27;;;5.13;;
33138;SDS011;19501;50.948;5.316;2023-08-08T00:10:50;12.02;;;4.78;;
33138;SDS011;19501;50.948;5.316;2023-08-08T00:13:16;14.18;;;5.10;;
33138;SDS011;19501;50.948;5.316;2023-08-08T00:15:42;14.85;;;5.45;;
33138;SDS011;19501;50.948;5.316;2023-08-08T00:18:08;14.27;;;4.80;;
33138;SDS011;19501;50.948;5.316;2023-08-08T00:20:34;12.73;;;4.60;;
33138;SDS011;19501;50.948;5.316;2023-08-08T00:22:59;13.07;;;4.90;;
33138;SDS011;19501;50.948;5.316;2023-08-08T00:25:25;12.52;;;4.93;;
33138;SDS011;19501;50.948;5.316;2023-08-08T00:27:50;16.13;;;5.32;;
33138;SDS011;19501;50.948;5.316;2023-08-08T00:30:16;14.90;;;5.35;;
33138;SDS011;19501;50.948;5.316;2023-08-08T00:32:42;15.55;;;4.97;;
33138;SDS011;19501;50.948;5.316;2023-08-08T00:35:08;15.07;;;4.70;;
33138;SDS011;19501;50.948;5.316;2023-08-08T00:37:36;14.02;;;4.55;;
33138;SDS011;19501;50.948;5.316;2023-08-08T00:40:02;13.77;;;5.10;;
33138;SDS011;19501;50.948;5.316;2023-08-08T00:42:27;17.58;;;5.22;;
33138;SDS011;19501;50.948;5.316;2023-08-08T00:44:53;13.02;;;4.47;;
33138;SDS011;19501;50.948;5.316;2023-08-08T00:47:19;14.73;;;4.47;;
33138;SDS011;19501;50.948;5.316;2023-08-08T00:49:44;13.52;;;4.35;;
33138;SDS011;19501;50.948;5.316;2023-08-08T00:52:13;15.77;;;4.55;;
33138;SDS011;19501;50.948;5.316;2023-08-08T00:54:39;13.27;;;4.38;;
33138;SDS011;19501;50.948;5.316;2023-08-08T00:57:05;14.13;;;4.95;;
33138;SDS011;19501;50.948;5.316;2023-08-08T00:59:31;15.18;;;4.60;;
33138;SDS011;19501;50.948;5.316;2023-08-08T01:01:57;18.33;;;5.35;;
33138;SDS011;19501;50.948;5.316;2023-08-08T01:04:24;13.38;;;5.00;;
33138;SDS011;19501;50.948;5.316;2023-08-08T01:06:57;14.68;;;4.72;;
33138;SDS011;19501;50.948;5.316;2023-08-08T01:10:09;15.80;;;4.50;;
33138;SDS011;19501;50.948;5.316;2023-08-08T01:12:36;13.23;;;4.47;;
33138;SDS011;19501;50.948;5.316;2023-08-08T01:15:10;17.13;;;4.70;;
33138;SDS011;19501;50.948;5.316;2023-08-08T01:17:36;15.35;;;4.65;;
33138;SDS011;19501;50.948;5.316;2023-08-08T01:20:06;14.38;;;4.35;;
33138;SDS011;19501;50.948;5.316;2023-08-08T01:22:40;14.48;;;5.20;;
33138;SDS011;19501;50.948;5.316;2023-08-08T01:25:20;15.52;;;5.03;;
33138;SDS011;19501;50.948;5.316;2023-08-08T01:27:46;13.07;;;4.72;;
33138;SDS011;19501;50.948;5.316;2023-08-08T01:30:12;14.25;;;5.53;;
33138;SDS011;19501;50.948;5.316;2023-08-08T01:32:38;16.00;;;5.30;;
33138;SDS011;19501;50.948;5.316;2023-08-08T01:35:04;19.80;;;5.00;;
33138;SDS011;19501;50.948;5.316;2023-08-08T01:37:32;13.68;;;4.38;;
33138;SDS011;19501;50.948;5.316;2023-08-08T01:40:03;15.73;;;5.22;;
33138;SDS011;19501;50.948;5.316;2023-08-08T01:42:30;16.52;;;5.25;;
33138;SDS011;19501;50.948;5.316;2023-08-08T01:44:56;12.52;;;4.50;;
33138;SDS011;19501;50.948;5.316;2023-08-08T01:47:23;15.65;;;4.97;;
33138;SDS011;19501;50.948;5.316;2023-08-08T01:49:49;17.55;;;5.57;;
33138;SDS011;19501;50.948;5.316;2023-08-08T01:52:14;14.75;;;4.88;;
33138;SDS011;19501;50.948;5.316;2023-08-08T01:54:40;16.67;;;5.40;;
33138;SDS011;19501;50.948;5.316;2023-08-08T01:57:07;16.13;;;5.22;;
33138;SDS011;19501;50.948;5.316;2023-08-08T01:59:33;19.45;;;5.68;;
33138;SDS011;19501;50.948;5.316;2023-08-08T02:01:58;16.35;;;6.07;;
33138;SDS011;19501;50.948;5.316;2023-08-08T02:04:24;17.55;;;5.43;;
33138;SDS011;19501;50.948;5.316;2023-08-08T02:06:50;20.05;;;5.53;;
33138;SDS011;19501;50.948;5.316;2023-08-08T02:09:15;19.15;;;5.28;;
33138;SDS011;19501;50.948;5.316;2023-08-08T02:11:41;16.30;;;5.50;;
33138;SDS011;19501;50.948;5.316;2023-08-08T02:14:07;18.00;;;5.60;;
33138;SDS011;19501;50.948;5.316;2023-08-08T02:16:35;19.85;;;5.75;;
33138;SDS011;19501;50.948;5.316;2023-08-08T02:19:00;16.75;;;5.90;;
33138;SDS011;19501;50.948;5.316;2023-08-08T02:21:26;18.73;;;5.18;;
33138;SDS011;19501;50.948;5.316;2023-08-08T02:23:52;14.40;;;5.32;;
33138;SDS011;19501;50.948;5.316;2023-08-08T02:26:20;21.52;;;6.10;;
33138;SDS011;19501;50.948;5.316;2023-08-08T02:28:45;19.95;;;6.45;;
33138;SDS011;19501;50.948;5.316;2023-08-08T02:31:11;16.48;;;5.28;;
33138;SDS011;19501;50.948;5.316;2023-08-08T02:33:45;14.57;;;5.32;;
33138;SDS011;19501;50.948;5.316;2023-08-08T02:36:15;18.23;;;5.47;;
33138;SDS011;19501;50.948;5.316;2023-08-08T02:38:41;22.55;;;6.55;;
33138;SDS011;19501;50.948;5.316;2023-08-08T02:41:06;18.23;;;5.72;;
33138;SDS011;19501;50.948;5.316;2023-08-08T02:43:32;15.75;;;5.88;;
33138;SDS011;19501;50.948;5.316;2023-08-08T02:45:58;15.48;;;5.50;;
33138;SDS011;19501;50.948;5.316;2023-08-08T02:48:23;16.92;;;5.75;;
33138;SDS011;19501;50.948;5.316;2023-08-08T02:50:49;26.42;;;6.57;;
33138;SDS011;19501;50.948;5.316;2023-08-08T02:53:15;20.67;;;5.38;;
33138;SDS011;19501;50.948;5.316;2023-08-08T02:55:40;22.60;;;6.18;;
33138;SDS011;19501;50.948;5.316;2023-08-08T02:58:06;18.52;;;6.07;;
33138;SDS011;19501;50.948;5.316;2023-08-08T03:00:31;19.58;;;5.85;;
33138;SDS011;19501;50.948;5.316;2023-08-08T03:02:57;21.17;;;5.63;;
33138;SDS011;19501;50.948;5.316;2023-08-08T03:05:23;20.45;;;5.60;;
33138;SDS011;19501;50.948;5.316;2023-08-08T03:07:48;17.80;;;6.32;;
33138;SDS011;19501;50.948;5.316;2023-08-08T03:10:14;21.70;;;6.78;;
33138;SDS011;19501;50.948;5.316;2023-08-08T03:12:40;22.05;;;6.68;;
33138;SDS011;19501;50.948;5.316;2023-08-08T03:15:06;20.40;;;6.85;;
33138;SDS011;19501;50.948;5.316;2023-08-08T03:17:32;19.90;;;6.07;;
33138;SDS011;19501;50.948;5.316;2023-08-08T03:19:59;22.80;;;6.55;;
33138;SDS011;19501;50.948;5.316;2023-08-08T03:22:25;22.48;;;5.97;;
33138;SDS011;19501;50.948;5.316;2023-08-08T03:24:51;18.25;;;6.15;;
33138;SDS011;19501;50.948;5.316;2023-08-08T03:27:16;21.75;;;6.80;;
33138;SDS011;19501;50.948;5.316;2023-08-08T03:29:42;18.13;;;6.22;;
33138;SDS011;19501;50.948;5.316;2023-08-08T03:32:08;21.33;;;6.63;;
33138;SDS011;19501;50.948;5.316;2023-08-08T03:34:33;22.60;;;7.05;;
33138;SDS011;19501;50.948;5.316;2023-08-08T03:36:59;23.42;;;7.07;;
33138;SDS011;19501;50.948;5.316;2023-08-08T03:39:25;22.13;;;6.15;;
33138;SDS011;19501;50.948;5.316;2023-08-08T03:41:51;22.20;;;7.00;;
33138;SDS011;19501;50.948;5.316;2023-08-08T03:44:17;26.17;;;6.93;;
33138;SDS011;19501;50.948;5.316;2023-08-08T03:46:42;22.75;;;6.45;;
33138;SDS011;19501;50.948;5.316;2023-08-08T03:49:08;21.88;;;6.35;;
33138;SDS011;19501;50.948;5.316;2023-08-08T03:51:34;23.50;;;7.15;;
33138;SDS011;19501;50.948;5.316;2023-08-08T03:54:00;24.52;;;7.25;;
33138;SDS011;19501;50.948;5.316;2023-08-08T03:56:25;30.30;;;7.53;;
33138;SDS011;19501;50.948;5.316;2023-08-08T03:58:52;20.67;;;6.60;;
33138;SDS011;19501;50.948;5.316;2023-08-08T04:01:18;23.58;;;7.00;;
33138;SDS011;19501;50.948;5.316;2023-08-08T04:03:43;20.52;;;6.50;;
33138;SDS011;19501;50.948;5.316;2023-08-08T04:06:09;21.13;;;6.55;;
33138;SDS011;19501;50.948;5.316;2023-08-08T04:08:34;25.33;;;7.72;;
33138;SDS011;19501;50.948;5.316;2023-08-08T04:11:00;29.70;;;8.10;;
33138;SDS011;19501;50.948;5.316;2023-08-08T04:13:26;25.10;;;7.38;;
33138;SDS011;19501;50.948;5.316;2023-08-08T04:15:54;27.45;;;8.20;;
33138;SDS011;19501;50.948;5.316;2023-08-08T04:18:19;20.00;;;6.70;;
33138;SDS011;19501;50.948;5.316;2023-08-08T04:20:47;20.58;;;6.50;;
33138;SDS011;19501;50.948;5.316;2023-08-08T04:23:15;24.88;;;6.85;;
33138;SDS011;19501;50.948;5.316;2023-08-08T04:25:41;21.83;;;7.55;;
33138;SDS011;19501;50.948;5.316;2023-08-08T04:28:06;27.58;;;7.47;;
33138;SDS011;19501;50.948;5.316;2023-08-08T04:30:34;21.52;;;7.45;;
33138;SDS011;19501;50.948;5.316;2023-08-08T04:33:00;23.48;;;8.02;;
33138;SDS011;19501;50.948;5.316;2023-08-08T04:35:26;23.63;;;7.25;;
33138;SDS011;19501;50.948;5.316;2023-08-08T04:37:54;25.85;;;6.95;;
33138;SDS011;19501;50.948;5.316;2023-08-08T04:40:19;27.27;;;7.18;;
33138;SDS011;19501;50.948;5.316;2023-08-08T04:42:45;24.88;;;7.53;;
33138;SDS011;19501;50.948;5.316;2023-08-08T04:45:11;18.77;;;6.18;;
33138;SDS011;19501;50.948;5.316;2023-08-08T04:47:37;24.48;;;7.40;;
33138;SDS011;19501;50.948;5.316;2023-08-08T04:50:03;26.17;;;6.90;;
33138;SDS011;19501;50.948;5.316;2023-08-08T04:52:29;28.92;;;8.48;;
33138;SDS011;19501;50.948;5.316;2023-08-08T04:54:55;20.80;;;6.82;;
33138;SDS011;19501;50.948;5.316;2023-08-08T04:57:20;24.45;;;7.38;;
33138;SDS011;19501;50.948;5.316;2023-08-08T04:59:46;25.92;;;6.68;;
33138;SDS011;19501;50.948;5.316;2023-08-08T05:02:11;22.00;;;7.50;;
33138;SDS011;19501;50.948;5.316;2023-08-08T05:04:37;31.88;;;9.43;;
33138;SDS011;19501;50.948;5.316;2023-08-08T05:07:03;22.58;;;7.07;;
33138;SDS011;19501;50.948;5.316;2023-08-08T05:09:28;25.40;;;8.57;;
33138;SDS011;19501;50.948;5.316;2023-08-08T05:11:54;25.95;;;7.53;;
33138;SDS011;19501;50.948;5.316;2023-08-08T05:14:20;26.45;;;8.35;;
33138;SDS011;19501;50.948;5.316;2023-08-08T05:16:46;27.27;;;7.60;;
33138;SDS011;19501;50.948;5.316;2023-08-08T05:19:11;27.08;;;8.73;;
33138;SDS011;19501;50.948;5.316;2023-08-08T05:21:37;28.67;;;9.20;;
33138;SDS011;19501;50.948;5.316;2023-08-08T05:24:03;28.90;;;7.93;;
33138;SDS011;19501;50.948;5.316;2023-08-08T05:26:29;28.65;;;8.10;;
33138;SDS011;19501;50.948;5.316;2023-08-08T05:28:57;20.52;;;7.55;;
33138;SDS011;19501;50.948;5.316;2023-08-08T05:31:22;28.33;;;8.75;;
33138;SDS011;19501;50.948;5.316;2023-08-08T05:33:48;27.40;;;8.82;;
33138;SDS011;19501;50.948;5.316;2023-08-08T05:36:14;21.95;;;8.45;;
33138;SDS011;19501;50.948;5.316;2023-08-08T05:38:39;24.88;;;8.57;;
33138;SDS011;19501;50.948;5.316;2023-08-08T05:41:06;25.58;;;8.77;;
33138;SDS011;19501;50.948;5.316;2023-08-08T05:43:32;25.63;;;8.88;;
33138;SDS011;19501;50.948;5.316;2023-08-08T05:45:58;25.83;;;7.78;;
33138;SDS011;19501;50.948;5.316;2023-08-08T05:48:26;30.33;;;9.50;;
33138;SDS011;19501;50.948;5.316;2023-08-08T05:50:52;25.80;;;8.25;;
33138;SDS011;19501;50.948;5.316;2023-08-08T05:53:17;23.92;;;7.70;;
33138;SDS011;19501;50.948;5.316;2023-08-08T05:55:43;27.00;;;8.52;;
33138;SDS011;19501;50.948;5.316;2023-08-08T05:58:11;30.90;;;9.60;;
33138;SDS011;19501;50.948;5.316;2023-08-08T06:00:36;26.75;;;9.20;;
33138;SDS011;19501;50.948;5.316;2023-08-08T06:03:02;23.08;;;7.53;;
33138;SDS011;19501;50.948;5.316;2023-08-08T06:05:28;27.60;;;8.18;;
33138;SDS011;19501;50.948;5.316;2023-08-08T06:07:55;24.02;;;8.35;;
33138;SDS011;19501;50.948;5.316;2023-08-08T06:10:21;24.92;;;8.45;;
33138;SDS011;19501;50.948;5.316;2023-08-08T06:12:47;22.20;;;8.15;;
33138;SDS011;19501;50.948;5.316;2023-08-08T06:15:13;26.33;;;8.20;;
33138;SDS011;19501;50.948;5.316;2023-08-08T06:17:39;27.52;;;8.15;;
33138;SDS011;19501;50.948;5.316;2023-08-08T06:20:05;28.13;;;8.32;;
33138;SDS011;19501;50.948;5.316;2023-08-08T06:22:32;27.20;;;8.85;;
33138;SDS011;19501;50.948;5.316;2023-08-08T06:24:57;30.90;;;8.20;;
33138;SDS011;19501;50.948;5.316;2023-08-08T06:27:23;24.70;;;7.80;;
33138;SDS011;19501;50.948;5.316;2023-08-08T06:29:48;29.75;;;9.68;;
33138;SDS011;19501;50.948;5.316;2023-08-08T06:32:14;19.92;;;7.35;;
33138;SDS011;19501;50.948;5.316;2023-08-08T06:34:40;28.95;;;9.70;;
33138;SDS011;19501;50.948;5.316;2023-08-08T06:37:05;20.63;;;7.53;;
33138;SDS011;19501;50.948;5.316;2023-08-08T06:39:31;26.05;;;8.00;;
33138;SDS011;19501;50.948;5.316;2023-08-08T06:41:57;23.20;;;7.60;;
33138;SDS011;19501;50.948;5.316;2023-08-08T06:44:23;25.00;;;7.50;;
33138;SDS011;19501;50.948;5.316;2023-08-08T06:46:48;20.63;;;7.32;;
33138;SDS011;19501;50.948;5.316;2023-08-08T06:49:14;25.38;;;7.68;;
33138;SDS011;19501;50.948;5.316;2023-08-08T06:51:39;24.17;;;7.43;;
33138;SDS011;19501;50.948;5.316;2023-08-08T06:54:05;24.45;;;7.38;;
33138;SDS011;19501;50.948;5.316;2023-08-08T06:56:32;26.77;;;7.20;;
33138;SDS011;19501;50.948;5.316;2023-08-08T06:58:58;27.95;;;8.20;;
33138;SDS011;19501;50.948;5.316;2023-08-08T07:01:24;20.67;;;7.43;;
33138;SDS011;19501;50.948;5.316;2023-08-08T07:03:49;25.40;;;7.63;;
33138;SDS011;19501;50.948;5.316;2023-08-08T07:06:17;31.05;;;7.50;;
33138;SDS011;19501;50.948;5.316;2023-08-08T07:08:43;21.00;;;6.50;;
33138;SDS011;19501;50.948;5.316;2023-08-08T07:11:08;21.88;;;6.60;;
33138;SDS011;19501;50.948;5.316;2023-08-08T07:13:34;15.20;;;6.57;;
33138;SDS011;19501;50.948;5.316;2023-08-08T07:16:00;18.48;;;6.88;;
33138;SDS011;19501;50.948;5.316;2023-08-08T07:18:25;21.58;;;7.05;;
33138;SDS011;19501;50.948;5.316;2023-08-08T07:20:51;21.10;;;8.45;;
33138;SDS011;19501;50.948;5.316;2023-08-08T07:23:17;23.23;;;7.40;;
33138;SDS011;19501;50.948;5.316;2023-08-08T07:25:43;22.50;;;7.53;;
33138;SDS011;19501;50.948;5.316;2023-08-08T07:28:12;21.77;;;6.80;;
33138;SDS011;19501;50.948;5.316;2023-08-08T07:30:39;19.55;;;6.38;;
33138;SDS011;19501;50.948;5.316;2023-08-08T07:33:05;26.25;;;8.80;;
33138;SDS011;19501;50.948;5.316;2023-08-08T07:35:33;22.80;;;7.45;;
33138;SDS011;19501;50.948;5.316;2023-08-08T07:38:01;30.00;;;8.52;;
33138;SDS011;19501;50.948;5.316;2023-08-08T07:40:27;20.63;;;7.65;;
33138;SDS011;19501;50.948;5.316;2023-08-08T07:42:53;24.60;;;7.22;;
33138;SDS011;19501;50.948;5.316;2023-08-08T07:45:18;19.75;;;7.07;;
33138;SDS011;19501;50.948;5.316;2023-08-08T07:47:44;27.77;;;8.23;;
33138;SDS011;19501;50.948;5.316;2023-08-08T07:50:10;21.08;;;6.85;;
33138;SDS011;19501;50.948;5.316;2023-08-08T07:52:36;26.30;;;7.35;;
33138;SDS011;19501;50.948;5.316;2023-08-08T07:55:03;22.48;;;6.53;;
33138;SDS011;19501;50.948;5.316;2023-08-08T07:57:29;20.50;;;7.20;;
33138;SDS011;19501;50.948;5.316;2023-08-08T07:59:56;25.25;;;8.48;;
33138;SDS011;19501;50.948;5.316;2023-08-08T08:02:22;22.02;;;7.15;;
33138;SDS011;19501;50.948;5.316;2023-08-08T08:04:47;16.02;;;6.85;;
33138;SDS011;19501;50.948;5.316;2023-08-08T08:07:13;21.65;;;7.50;;
33138;SDS011;19501;50.948;5.316;2023-08-08T08:09:39;19.83;;;7.35;;
33138;SDS011;19501;50.948;5.316;2023-08-08T08:12:07;22.08;;;7.60;;
33138;SDS011;19501;50.948;5.316;2023-08-08T08:14:33;18.55;;;5.90;;
33138;SDS011;19501;50.948;5.316;2023-08-08T08:16:59;19.67;;;6.55;;
33138;SDS011;19501;50.948;5.316;2023-08-08T08:19:25;17.25;;;6.55;;
33138;SDS011;19501;50.948;5.316;2023-08-08T08:21:50;19.10;;;6.65;;
33138;SDS011;19501;50.948;5.316;2023-08-08T08:24:16;24.13;;;6.80;;
33138;SDS011;19501;50.948;5.316;2023-08-08T08:26:41;14.30;;;5.47;;
33138;SDS011;19501;50.948;5.316;2023-08-08T08:29:07;18.98;;;5.95;;
33138;SDS011;19501;50.948;5.316;2023-08-08T08:31:33;20.23;;;6.25;;
33138;SDS011;19501;50.948;5.316;2023-08-08T08:33:59;20.15;;;6.20;;
33138;SDS011;19501;50.948;5.316;2023-08-08T08:36:24;18.42;;;5.75;;
33138;SDS011;19501;50.948;5.316;2023-08-08T08:38:51;16.67;;;6.75;;
33138;SDS011;19501;50.948;5.316;2023-08-08T08:41:18;22.05;;;6.57;;
33138;SDS011;19501;50.948;5.316;2023-08-08T08:43:45;19.98;;;5.97;;
33138;SDS011;19501;50.948;5.316;2023-08-08T08:46:13;20.95;;;5.68;;
33138;SDS011;19501;50.948;5.316;2023-08-08T08:48:46;18.17;;;5.32;;
33138;SDS011;19501;50.948;5.316;2023-08-08T08:51:14;17.38;;;5.28;;
33138;SDS011;19501;50.948;5.316;2023-08-08T08:53:41;19.17;;;5.88;;
33138;SDS011;19501;50.948;5.316;2023-08-08T08:56:08;16.80;;;5.78;;
33138;SDS011;19501;50.948;5.316;2023-08-08T08:58:34;22.85;;;5.63;;
33138;SDS011;19501;50.948;5.316;2023-08-08T09:01:00;22.08;;;5.82;;
33138;SDS011;19501;50.948;5.316;2023-08-08T09:03:26;18.20;;;6.43;;
33138;SDS011;19501;50.948;5.316;2023-08-08T09:05:52;21.50;;;6.13;;
33138;SDS011;19501;50.948;5.316;2023-08-08T09:08:19;18.75;;;6.30;;
33138;SDS011;19501;50.948;5.316;2023-08-08T09:10:45;19.05;;;6.70;;
33138;SDS011;19501;50.948;5.316;2023-08-08T09:13:11;18.23;;;6.53;;
33138;SDS011;19501;50.948;5.316;2023-08-08T09:15:37;19.77;;;7.45;;
33138;SDS011;19501;50.948;5.316;2023-08-08T09:18:02;15.35;;;5.80;;
33138;SDS011;19501;50.948;5.316;2023-08-08T09:20:28;15.95;;;5.60;;
33138;SDS011;19501;50.948;5.316;2023-08-08T09:22:54;16.52;;;6.20;;
33138;SDS011;19501;50.948;5.316;2023-08-08T09:25:20;20.33;;;6.25;;
33138;SDS011;19501;50.948;5.316;2023-08-08T09:27:46;13.45;;;5.97;;
33138;SDS011;19501;50.948;5.316;2023-08-08T09:30:12;17.00;;;6.32;;
33138;SDS011;19501;50.948;5.316;2023-08-08T09:32:38;17.15;;;5.80;;
33138;SDS011;19501;50.948;5.316;2023-08-08T09:35:04;20.25;;;6.13;;
33138;SDS011;19501;50.948;5.316;2023-08-08T09:37:32;18.10;;;6.35;;
33138;SDS011;19501;50.948;5.316;2023-08-08T09:39:59;14.10;;;5.22;;
33138;SDS011;19501;50.948;5.316;2023-08-08T09:42:26;16.60;;;5.78;;
33138;SDS011;19501;50.948;5.316;2023-08-08T09:44:52;19.88;;;6.47;;
33138;SDS011;19501;50.948;5.316;2023-08-08T09:47:20;18.92;;;7.03;;
33138;SDS011;19501;50.948;5.316;2023-08-08T09:49:47;17.95;;;5.53;;
33138;SDS011;19501;50.948;5.316;2023-08-08T09:52:13;13.80;;;5.35;;
33138;SDS011;19501;50.948;5.316;2023-08-08T09:54:40;15.23;;;6.10;;
33138;SDS011;19501;50.948;5.316;2023-08-08T09:57:06;18.27;;;6.20;;
33138;SDS011;19501;50.948;5.316;2023-08-08T09:59:35;14.48;;;6.45;;
33138;SDS011;19501;50.948;5.316;2023-08-08T10:02:01;15.52;;;5.65;;
33138;SDS011;19501;50.948;5.316;2023-08-08T10:04:27;15.50;;;5.65;;
33138;SDS011;19501;50.948;5.316;2023-08-08T10:06:53;16.27;;;6.13;;
33138;SDS011;19501;50.948;5.316;2023-08-08T10:09:19;17.52;;;6.18;;
33138;SDS011;19501;50.948;5.316;2023-08-08T10:11:46;14.85;;;5.85;;
33138;SDS011;19501;50.948;5.316;2023-08-08T10:14:13;18.63;;;6.28;;
33138;SDS011;19501;50.948;5.316;2023-08-08T10:16:42;14.13;;;5.53;;
33138;SDS011;19501;50.948;5.316;2023-08-08T10:19:11;13.88;;;5.45;;
33138;SDS011;19501;50.948;5.316;2023-08-08T10:21:41;15.57;;;5.57;;
33138;SDS011;19501;50.948;5.316;2023-08-08T10:24:09;13.60;;;5.82;;
33138;SDS011;19501;50.948;5.316;2023-08-08T10:29:25;16.83;;;5.68;;
33138;SDS011;19501;50.948;5.316;2023-08-08T10:31:52;17.88;;;5.90;;
33138;SDS011;19501;50.948;5.316;2023-08-08T10:34:38;20.95;;;6.13;;
33138;SDS011;19501;50.948;5.316;2023-08-08T10:37:05;16.63;;;5.78;;
33138;SDS011;19501;50.948;5.316;2023-08-08T10:39:35;13.82;;;4.88;;
33138;SDS011;19501;50.948;5.316;2023-08-08T10:42:03;17.70;;;5.15;;
33138;SDS011;19501;50.948;5.316;2023-08-08T10:44:30;16.75;;;5.00;;
33138;SDS011;19501;50.948;5.316;2023-08-08T10:46:56;15.63;;;5.15;;
33138;SDS011;19501;50.948;5.316;2023-08-08T10:49:22;21.30;;;5.95;;
33138;SDS011;19501;50.948;5.316;2023-08-08T10:51:49;19.63;;;5.07;;
33138;SDS011;19501;50.948;5.316;2023-08-08T10:54:16;16.20;;;5.72;;
33138;SDS011;19501;50.948;5.316;2023-08-08T10:56:53;12.75;;;5.18;;
33138;SDS011;19501;50.948;5.316;2023-08-08T11:02:00;18.02;;;5.25;;
33138;SDS011;19501;50.948;5.316;2023-08-08T11:04:26;18.05;;;5.32;;
33138;SDS011;19501;50.948;5.316;2023-08-08T11:06:54;18.88;;;5.88;;
33138;SDS011;19501;50.948;5.316;2023-08-08T11:09:20;14.68;;;4.88;;
33138;SDS011;19501;50.948;5.316;2023-08-08T11:11:46;13.82;;;4.88;;
33138;SDS011;19501;50.948;5.316;2023-08-08T11:14:12;16.55;;;5.05;;
33138;SDS011;19501;50.948;5.316;2023-08-08T11:16:40;13.02;;;4.75;;
33138;SDS011;19501;50.948;5.316;2023-08-08T11:19:06;13.98;;;5.20;;
33138;SDS011;19501;50.948;5.316;2023-08-08T11:21:33;12.88;;;4.50;;
33138;SDS011;19501;50.948;5.316;2023-08-08T11:24:04;14.15;;;4.93;;
33138;SDS011;19501;50.948;5.316;2023-08-08T11:26:31;12.57;;;4.72;;
33138;SDS011;19501;50.948;5.316;2023-08-08T11:28:58;16.92;;;4.60;;
33138;SDS011;19501;50.948;5.316;2023-08-08T11:31:27;14.90;;;4.50;;
33138;SDS011;19501;50.948;5.316;2023-08-08T11:33:54;12.43;;;4.00;;
33138;SDS011;19501;50.948;5.316;2023-08-08T11:36:22;13.30;;;4.40;;
33138;SDS011;19501;50.948;5.316;2023-08-08T11:38:49;12.15;;;4.57;;
33138;SDS011;19501;50.948;5.316;2023-08-08T11:41:22;13.48;;;4.57;;
33138;SDS011;19501;50.948;5.316;2023-08-08T11:43:49;11.20;;;4.28;;
33138;SDS011;19501;50.948;5.316;2023-08-08T11:46:16;17.30;;;5.03;;
33138;SDS011;19501;50.948;5.316;2023-08-08T11:48:42;15.52;;;4.40;;
33138;SDS011;19501;50.948;5.316;2023-08-08T11:51:13;14.85;;;5.00;;
33138;SDS011;19501;50.948;5.316;2023-08-08T11:53:47;11.50;;;4.35;;
33138;SDS011;19501;50.948;5.316;2023-08-08T11:56:17;16.00;;;5.28;;
33138;SDS011;19501;50.948;5.316;2023-08-08T11:58:44;16.50;;;5.40;;
33138;SDS011;19501;50.948;5.316;2023-08-08T12:01:10;14.98;;;5.60;;
33138;SDS011;19501;50.948;5.316;2023-08-08T12:03:39;18.42;;;5.55;;
33138;SDS011;19501;50.948;5.316;2023-08-08T12:06:14;16.33;;;5.80;;
33138;SDS011;19501;50.948;5.316;2023-08-08T12:08:41;15.70;;;5.03;;
33138;SDS011;19501;50.948;5.316;2023-08-08T12:11:08;11.60;;;4.93;;
33138;SDS011;19501;50.948;5.316;2023-08-08T12:13:36;14.82;;;4.50;;
33138;SDS011;19501;50.948;5.316;2023-08-08T12:16:05;14.23;;;4.65;;
33138;SDS011;19501;50.948;5.316;2023-08-08T12:18:31;11.63;;;4.15;;
33138;SDS011;19501;50.948;5.316;2023-08-08T12:20:57;14.20;;;4.20;;
33138;SDS011;19501;50.948;5.316;2023-08-08T12:23:23;15.63;;;4.18;;
33138;SDS011;19501;50.948;5.316;2023-08-08T12:25:51;12.35;;;4.15;;
33138;SDS011;19501;50.948;5.316;2023-08-08T12:28:16;14.10;;;4.38;;
33138;SDS011;19501;50.948;5.316;2023-08-08T12:30:42;11.57;;;3.78;;
33138;SDS011;19501;50.948;5.316;2023-08-08T12:33:08;10.93;;;3.60;;
33138;SDS011;19501;50.948;5.316;2023-08-08T12:35:33;12.88;;;4.13;;
33138;SDS011;19501;50.948;5.316;2023-08-08T12:37:59;16.25;;;4.22;;
33138;SDS011;19501;50.948;5.316;2023-08-08T12:40:30;13.77;;;3.88;;
33138;SDS011;19501;50.948;5.316;2023-08-08T12:42:56;12.40;;;3.90;;
33138;SDS011;19501;50.948;5.316;2023-08-08T12:45:22;12.55;;;3.60;;
33138;SDS011;19501;50.948;5.316;2023-08-08T12:47:47;13.63;;;4.07;;
33138;SDS011;19501;50.948;5.316;2023-08-08T12:50:13;13.00;;;3.80;;
33138;SDS011;19501;50.948;5.316;2023-08-08T12:52:39;10.30;;;3.20;;
33138;SDS011;19501;50.948;5.316;2023-08-08T12:55:05;10.80;;;3.40;;
33138;SDS011;19501;50.948;5.316;2023-08-08T12:57:32;5.95;;;2.90;;
33138;SDS011;19501;50.948;5.316;2023-08-08T12:59:58;7.95;;;3.40;;
33138;SDS011;19501;50.948;5.316;2023-08-08T13:02:23;8.02;;;3.03;;
33138;SDS011;19501;50.948;5.316;2023-08-08T13:04:49;6.47;;;2.85;;
33138;SDS011;19501;50.948;5.316;2023-08-08T13:07:15;6.93;;;3.17;;
33138;SDS011;19501;50.948;5.316;2023-08-08T13:09:41;9.10;;;3.22;;
33138;SDS011;19501;50.948;5.316;2023-08-08T13:12:07;9.30;;;3.30;;
33138;SDS011;19501;50.948;5.316;2023-08-08T13:14:33;11.43;;;3.25;;
33138;SDS011;19501;50.948;5.316;2023-08-08T13:16:59;9.43;;;2.97;;
33138;SDS011;19501;50.948;5.316;2023-08-08T13:19:25;8.35;;;3.20;;
33138;SDS011;19501;50.948;5.316;2023-08-08T13:21:52;11.32;;;3.17;;
33138;SDS011;19501;50.948;5.316;2023-08-08T13:24:18;11.57;;;3.38;;
33138;SDS011;19501;50.948;5.316;2023-08-08T13:26:45;5.55;;;2.80;;
33138;SDS011;19501;50.948;5.316;2023-08-08T13:29:11;9.82;;;3.45;;
33138;SDS011;19501;50.948;5.316;2023-08-08T13:31:37;10.70;;;3.30;;
33138;SDS011;19501;50.948;5.316;2023-08-08T13:34:03;12.07;;;2.97;;
33138;SDS011;19501;50.948;5.316;2023-08-08T13:36:29;9.70;;;3.95;;
33138;SDS011;19501;50.948;5.316;2023-08-08T13:38:55;10.85;;;3.42;;
33138;SDS011;19501;50.948;5.316;2023-08-08T13:41:21;7.45;;;2.80;;
33138;SDS011;19501;50.948;5.316;2023-08-08T13:43:46;9.27;;;3.05;;
33138;SDS011;19501;50.948;5.316;2023-08-08T13:46:12;6.38;;;2.70;;
33138;SDS011;19501;50.948;5.316;2023-08-08T13:48:38;7.75;;;3.00;;
33138;SDS011;19501;50.948;5.316;2023-08-08T13:51:03;6.28;;;3.00;;
33138;SDS011;19501;50.948;5.316;2023-08-08T13:53:29;7.40;;;3.10;;
33138;SDS011;19501;50.948;5.316;2023-08-08T13:55:55;8.35;;;2.90;;
33138;SDS011;19501;50.948;5.316;2023-08-08T13:58:21;8.68;;;3.50;;
33138;SDS011;19501;50.948;5.316;2023-08-08T14:00:49;8.27;;;2.75;;
33138;SDS011;19501;50.948;5.316;2023-08-08T14:03:16;10.90;;;3.30;;
33138;SDS011;19501;50.948;5.316;2023-08-08T14:05:42;7.32;;;2.78;;
33138;SDS011;19501;50.948;5.316;2023-08-08T14:08:08;7.15;;;2.80;;
33138;SDS011;19501;50.948;5.316;2023-08-08T14:10:34;8.32;;;2.92;;
33138;SDS011;19501;50.948;5.316;2023-08-08T14:13:00;7.20;;;2.90;;
33138;SDS011;19501;50.948;5.316;2023-08-08T14:15:26;10.68;;;3.15;;
33138;SDS011;19501;50.948;5.316;2023-08-08T14:17:52;7.68;;;2.88;;
33138;SDS011;19501;50.948;5.316;2023-08-08T14:20:18;10.52;;;3.60;;
33138;SDS011;19501;50.948;5.316;2023-08-08T14:22:47;13.82;;;3.65;;
33138;SDS011;19501;50.948;5.316;2023-08-08T14:25:13;10.15;;;2.95;;
33138;SDS011;19501;50.948;5.316;2023-08-08T14:27:39;8.85;;;3.40;;
33138;SDS011;19501;50.948;5.316;2023-08-08T14:30:05;8.85;;;2.80;;
33138;SDS011;19501;50.948;5.316;2023-08-08T14:32:31;9.10;;;2.97;;
33138;SDS011;19501;50.948;5.316;2023-08-08T14:34:57;8.32;;;2.90;;
33138;SDS011;19501;50.948;5.316;2023-08-08T14:37:23;11.32;;;3.00;;